createdAt,value
2017-02-15T00:01:09.013Z,98.47
2017-02-15T00:02:19.721Z,98.65
2017-02-15T00:03:30.070Z,98.37
2017-02-15T00:04:40.803Z,98.56
2017-02-15T00:05:51.101Z,98.65
2017-02-15T00:07:01.804Z,99.32
2017-02-15T00:08:12.510Z,98.65
2017-02-15T00:09:23.214Z,99.13
2017-02-15T00:10:33.916Z,98.84
2017-02-15T00:11:44.628Z,99.41
2017-02-15T00:12:55.328Z,99.99
2017-02-15T00:14:06.029Z,99.99
2017-02-15T00:15:16.720Z,99.99
2017-02-15T00:16:27.036Z,99.99
2017-02-15T00:17:37.747Z,99.99
2017-02-15T00:18:48.055Z,99.99
2017-02-15T00:19:58.748Z,99.99
2017-02-15T00:21:08.662Z,99.99
2017-02-15T00:22:19.378Z,99.99
2017-02-15T00:23:30.073Z,99.99
2017-02-15T00:24:40.776Z,99.99
2017-02-15T00:25:51.088Z,99.99
2017-02-15T00:27:01.785Z,99.99
2017-02-15T00:28:12.498Z,99.99
2017-02-15T00:29:23.191Z,99.99
2017-02-15T00:30:33.926Z,99.99
2017-02-15T00:31:44.634Z,99.99
2017-02-15T00:32:55.343Z,99.88
2017-02-15T00:34:06.140Z,99.99
2017-02-15T00:35:16.478Z,99.99
2017-02-15T00:36:26.792Z,99.88
2017-02-15T00:37:37.110Z,99.98
2017-02-15T00:38:47.818Z,99.99
2017-02-15T00:39:58.522Z,99.99
2017-02-15T00:41:09.255Z,99.99
2017-02-15T00:42:19.557Z,99.99
2017-02-15T00:43:29.855Z,99.99
2017-02-15T00:44:40.569Z,99.99
2017-02-15T00:45:50.903Z,99.99
2017-02-15T00:47:01.606Z,99.99
2017-02-15T00:48:12.302Z,99.99
2017-02-15T00:49:23.005Z,99.99
2017-02-15T00:50:33.329Z,99.99
2017-02-15T00:51:44.041Z,99.99
2017-02-15T00:52:54.742Z,99.99
2017-02-15T00:54:05.437Z,99.99
2017-02-15T00:55:15.743Z,99.99
2017-02-15T00:56:26.443Z,99.99
2017-02-15T00:57:37.158Z,99.99
2017-02-15T00:58:47.869Z,99.99
2017-02-15T00:59:58.598Z,99.99
2017-02-15T01:01:09.320Z,99.99
2017-02-15T01:02:20.024Z,99.99
2017-02-15T01:03:30.330Z,99.99
2017-02-15T01:04:41.057Z,99.99
2017-02-15T01:05:51.763Z,99.99
2017-02-15T01:07:02.472Z,99.99
2017-02-15T01:08:12.776Z,99.99
2017-02-15T01:09:23.477Z,99.99
2017-02-15T01:10:33.799Z,99.99
2017-02-15T01:11:44.537Z,99.99
2017-02-15T01:12:55.246Z,99.99
2017-02-15T01:14:05.963Z,99.99
2017-02-15T01:15:16.292Z,99.99
2017-02-15T01:16:27.016Z,99.99
2017-02-15T01:17:37.724Z,99.99
2017-02-15T01:18:48.445Z,99.99
2017-02-15T01:19:58.761Z,99.99
2017-02-15T01:21:09.483Z,99.99
2017-02-15T01:22:20.209Z,99.99
2017-02-15T01:23:30.524Z,99.99
2017-02-15T01:24:41.256Z,99.99
2017-02-15T01:25:51.979Z,99.99
2017-02-15T01:27:02.672Z,99.99
2017-02-15T01:28:12.968Z,99.99
2017-02-15T01:29:23.688Z,99.99
2017-02-15T01:30:34.411Z,99.99
2017-02-15T01:31:45.128Z,99.99
2017-02-15T01:32:55.845Z,99.99
2017-02-15T01:34:06.547Z,99.99
2017-02-15T01:35:17.273Z,99.99
2017-02-15T01:36:27.572Z,99.99
2017-02-15T01:37:37.897Z,99.99
2017-02-15T01:38:48.603Z,99.99
2017-02-15T01:39:58.918Z,99.99
2017-02-15T01:41:09.228Z,99.99
2017-02-15T01:42:19.945Z,99.99
2017-02-15T01:43:30.649Z,99.99
2017-02-15T01:44:41.349Z,99.99
2017-02-15T01:45:52.054Z,99.99
2017-02-15T01:47:02.750Z,99.83
2017-02-15T01:48:13.448Z,99.93
2017-02-15T01:49:24.159Z,99.99
2017-02-15T01:50:34.499Z,99.99
2017-02-15T01:51:45.203Z,99.99
2017-02-15T01:52:55.908Z,99.99
2017-02-15T01:54:06.627Z,99.99
2017-02-15T01:55:17.352Z,99.99
2017-02-15T01:56:28.057Z,99.99
2017-02-15T01:57:38.392Z,99.99
2017-02-15T01:58:49.096Z,99.99
2017-02-15T01:59:59.796Z,99.99
2017-02-15T02:01:10.112Z,99.99
2017-02-15T02:02:20.818Z,99.99
2017-02-15T02:03:31.537Z,99.99
2017-02-15T02:04:42.260Z,99.83
2017-02-15T02:05:52.962Z,99.45
2017-02-15T02:07:03.671Z,99.36
2017-02-15T02:08:14.369Z,99.99
2017-02-15T02:09:25.069Z,99.99
2017-02-15T02:10:35.774Z,99.99
2017-02-15T02:11:46.479Z,99.99
2017-02-15T02:12:57.190Z,99.99
2017-02-15T02:14:07.495Z,99.99
2017-02-15T02:15:17.794Z,99.99
2017-02-15T02:16:28.504Z,99.99
2017-02-15T02:17:39.203Z,99.64
2017-02-15T02:18:49.517Z,99.83
2017-02-15T02:20:00.270Z,99.74
2017-02-15T02:21:10.579Z,99.26
2017-02-15T02:22:21.285Z,99.99
2017-02-15T02:23:32.015Z,99.99
2017-02-15T02:24:42.720Z,99.99
2017-02-15T02:25:53.418Z,99.93
2017-02-15T02:27:04.125Z,99.99
2017-02-15T02:28:14.836Z,99.99
2017-02-15T02:29:25.541Z,99.99
2017-02-15T02:30:35.871Z,99.99
2017-02-15T02:31:46.594Z,99.99
2017-02-15T02:32:57.319Z,99.99
2017-02-15T02:34:08.036Z,99.99
2017-02-15T02:35:18.757Z,99.99
2017-02-15T02:36:29.066Z,99.99
2017-02-15T02:37:39.381Z,99.99
2017-02-15T02:38:50.085Z,99.99
2017-02-15T02:40:00.791Z,99.99
2017-02-15T02:41:10.732Z,99.99
2017-02-15T02:42:21.037Z,99.99
2017-02-15T02:43:31.735Z,99.99
2017-02-15T02:44:42.434Z,99.99
2017-02-15T02:45:53.143Z,99.99
2017-02-15T02:47:03.454Z,99.99
2017-02-15T02:48:13.777Z,99.99
2017-02-15T02:49:24.380Z,99.99
2017-02-15T02:50:35.087Z,99.99
2017-02-15T02:51:45.809Z,99.99
2017-02-15T02:52:56.519Z,99.99
2017-02-15T02:54:06.814Z,99.99
2017-02-15T02:55:17.118Z,99.99
2017-02-15T02:56:27.813Z,99.99
2017-02-15T02:57:38.522Z,99.99
2017-02-15T02:58:49.231Z,99.99
2017-02-15T02:59:59.946Z,99.99
2017-02-15T03:01:10.246Z,99.99
2017-02-15T03:02:20.550Z,99.99
2017-02-15T03:03:31.246Z,99.99
2017-02-15T03:04:41.964Z,99.99
2017-02-15T03:05:52.663Z,99.99
2017-02-15T03:07:05.797Z,99.99
2017-02-15T03:08:16.096Z,99.99
2017-02-15T03:09:26.830Z,99.99
2017-02-15T03:10:37.533Z,99.99
2017-02-15T03:11:48.252Z,99.99
2017-02-15T03:12:58.960Z,99.99
2017-02-15T03:14:09.660Z,99.99
2017-02-15T03:15:20.363Z,99.99
2017-02-15T03:16:31.075Z,99.99
2017-02-15T03:17:41.777Z,99.99
2017-02-15T03:18:52.493Z,99.99
2017-02-15T03:20:03.217Z,99.99
2017-02-15T03:21:13.933Z,99.99
2017-02-15T03:22:24.655Z,99.87
2017-02-15T03:23:35.381Z,99.74
2017-02-15T03:24:46.458Z,99.74
2017-02-15T03:25:57.149Z,99.4
2017-02-15T03:27:07.861Z,99.74
2017-02-15T03:28:18.562Z,99.78
2017-02-15T03:29:29.288Z,99.93
2017-02-15T03:30:39.607Z,99.99
2017-02-15T03:31:50.330Z,99.99
2017-02-15T03:33:01.044Z,99.99
2017-02-15T03:34:11.764Z,99.99
2017-02-15T03:35:22.491Z,99.99
2017-02-15T03:36:33.211Z,99.78
2017-02-15T03:37:43.918Z,99.12
2017-02-15T03:38:54.617Z,99.68
2017-02-15T03:40:05.344Z,99.99
2017-02-15T03:41:16.060Z,99.99
2017-02-15T03:42:26.780Z,99.99
2017-02-15T03:43:37.484Z,99.99
2017-02-15T03:44:48.187Z,99.99
2017-02-15T03:45:58.908Z,99.99
2017-02-15T03:47:09.609Z,99.99
2017-02-15T03:48:20.311Z,99.99
2017-02-15T03:49:31.029Z,99.99
2017-02-15T03:50:41.739Z,99.99
2017-02-15T03:51:52.450Z,99.99
2017-02-15T03:53:03.178Z,99.99
2017-02-15T03:54:13.894Z,99.99
2017-02-15T03:55:24.620Z,99.99
2017-02-15T03:56:34.940Z,99.99
2017-02-15T03:57:45.675Z,99.99
2017-02-15T03:58:56.387Z,99.99
2017-02-15T04:00:07.104Z,99.99
2017-02-15T04:01:17.820Z,99.99
2017-02-15T04:02:28.523Z,99.99
2017-02-15T04:03:39.242Z,99.99
2017-02-15T04:04:49.967Z,99.99
2017-02-15T04:06:00.684Z,99.99
2017-02-15T04:07:11.000Z,99.99
2017-02-15T04:08:21.694Z,99.99
2017-02-15T04:09:32.407Z,99.99
2017-02-15T04:10:43.111Z,99.99
2017-02-15T04:11:53.821Z,99.99
2017-02-15T04:13:04.535Z,99.99
2017-02-15T04:14:14.855Z,99.99
2017-02-15T04:15:25.579Z,99.99
2017-02-15T04:16:36.302Z,99.99
2017-02-15T04:17:47.011Z,99.99
2017-02-15T04:18:57.743Z,99.99
2017-02-15T04:20:08.439Z,99.99
2017-02-15T04:21:19.158Z,99.99
2017-02-15T04:22:29.875Z,99.99
2017-02-15T04:23:40.625Z,99.99
2017-02-15T04:24:51.331Z,99.99
2017-02-15T04:26:02.056Z,99.99
2017-02-15T04:27:12.761Z,99.99
2017-02-15T04:28:23.473Z,99.99
2017-02-15T04:29:34.188Z,99.99
2017-02-15T04:30:44.890Z,99.99
2017-02-15T04:31:55.623Z,99.99
2017-02-15T04:33:06.350Z,99.99
2017-02-15T04:34:16.675Z,99.99
2017-02-15T04:35:26.981Z,99.99
2017-02-15T04:36:37.717Z,99.99
2017-02-15T04:37:48.409Z,99.99
2017-02-15T04:38:59.109Z,99.99
2017-02-15T04:40:08.635Z,99.99
2017-02-15T04:41:18.946Z,99.99
2017-02-15T04:42:29.264Z,99.99
2017-02-15T04:43:39.971Z,99.99
2017-02-15T04:44:50.714Z,99.99
2017-02-15T04:46:01.430Z,99.99
2017-02-15T04:47:11.748Z,99.99
2017-02-15T04:48:22.452Z,99.99
2017-02-15T04:49:33.164Z,99.99
2017-02-15T04:50:43.481Z,99.99
2017-02-15T04:51:54.192Z,99.99
2017-02-15T04:53:04.904Z,99.99
2017-02-15T04:54:14.804Z,99.99
2017-02-15T04:55:25.508Z,99.99
2017-02-15T04:56:36.212Z,99.99
2017-02-15T04:57:46.924Z,99.99
2017-02-15T04:58:57.624Z,99.99
2017-02-15T05:00:08.332Z,99.99
2017-02-15T05:01:19.035Z,99.99
2017-02-15T05:02:29.758Z,99.99
2017-02-15T05:03:40.483Z,99.99
2017-02-15T05:04:50.792Z,99.99
2017-02-15T05:06:01.504Z,99.99
2017-02-15T05:07:11.810Z,99.99
2017-02-15T05:08:22.527Z,99.99
2017-02-15T05:09:33.249Z,99.99
2017-02-15T05:10:43.177Z,99.99
2017-02-15T05:11:53.883Z,99.99
2017-02-15T05:13:04.593Z,99.99
2017-02-15T05:14:14.906Z,99.99
2017-02-15T05:15:25.615Z,99.99
2017-02-15T05:16:35.915Z,99.99
2017-02-15T05:17:46.244Z,99.99
2017-02-15T05:18:56.991Z,99.99
2017-02-15T05:20:07.707Z,99.99
2017-02-15T05:21:18.406Z,99.99
2017-02-15T05:22:29.136Z,99.99
2017-02-15T05:23:39.850Z,99.99
2017-02-15T05:24:50.566Z,99.99
2017-02-15T05:26:01.276Z,99.99
2017-02-15T05:27:12.013Z,99.99
2017-02-15T05:28:22.712Z,99.99
2017-02-15T05:29:33.430Z,99.99
2017-02-15T05:30:44.137Z,99.99
2017-02-15T05:31:54.836Z,99.99
2017-02-15T05:33:05.556Z,99.99
2017-02-15T05:34:16.267Z,99.99
2017-02-15T05:35:26.974Z,99.99
2017-02-15T05:36:37.700Z,99.99
2017-02-15T05:37:47.999Z,99.99
2017-02-15T05:38:58.717Z,99.99
2017-02-15T05:40:09.419Z,99.99
2017-02-15T05:41:20.130Z,99.99
2017-02-15T05:42:30.450Z,99.99
2017-02-15T05:43:41.158Z,99.99
2017-02-15T05:44:51.854Z,99.99
2017-02-15T05:46:02.562Z,99.99
2017-02-15T05:47:13.259Z,99.99
2017-02-15T05:48:23.555Z,99.99
2017-02-15T05:49:33.873Z,99.99
2017-02-15T05:50:44.195Z,99.99
2017-02-15T05:51:54.901Z,99.99
2017-02-15T05:53:05.616Z,99.99
2017-02-15T05:54:15.534Z,99.99
2017-02-15T05:55:26.264Z,99.99
2017-02-15T05:56:36.979Z,99.99
2017-02-15T05:57:47.676Z,99.99
2017-02-15T05:58:58.386Z,99.99
2017-02-15T06:00:09.095Z,99.99
2017-02-15T06:01:19.410Z,99.99
2017-02-15T06:02:30.145Z,99.99
2017-02-15T06:03:40.862Z,99.99
2017-02-15T06:04:51.176Z,99.99
2017-02-15T06:06:01.871Z,99.99
2017-02-15T06:07:12.579Z,99.99
2017-02-15T06:08:23.296Z,99.99
2017-02-15T06:09:33.615Z,99.99
2017-02-15T06:10:44.315Z,99.99
2017-02-15T06:11:55.035Z,99.99
2017-02-15T06:13:05.757Z,99.99
2017-02-15T06:14:16.475Z,99.99
2017-02-15T06:15:27.182Z,99.99
2017-02-15T06:16:37.902Z,99.99
2017-02-15T06:17:48.621Z,99.99
2017-02-15T06:18:59.336Z,99.99
2017-02-15T06:20:09.651Z,99.99
2017-02-15T06:21:19.593Z,99.99
2017-02-15T06:22:30.310Z,99.99
2017-02-15T06:23:41.042Z,99.99
2017-02-15T06:24:51.744Z,99.99
2017-02-15T06:26:02.454Z,99.99
2017-02-15T06:27:12.789Z,99.99
2017-02-15T06:28:23.500Z,99.99
2017-02-15T06:29:33.807Z,99.99
2017-02-15T06:30:44.503Z,99.99
2017-02-15T06:31:55.201Z,99.99
2017-02-15T06:33:05.900Z,99.99
2017-02-15T06:34:16.612Z,99.99
2017-02-15T06:35:27.317Z,99.99
2017-02-15T06:36:38.029Z,99.99
2017-02-15T06:37:48.751Z,99.99
2017-02-15T06:38:59.462Z,99.99
2017-02-15T06:40:10.182Z,99.99
2017-02-15T06:41:20.893Z,99.99
2017-02-15T06:42:31.602Z,99.99
2017-02-15T06:43:42.307Z,99.99
2017-02-15T06:44:53.025Z,99.99
2017-02-15T06:46:03.750Z,99.99
2017-02-15T06:47:14.074Z,99.99
2017-02-15T06:48:24.791Z,99.99
2017-02-15T06:49:35.491Z,99.99
2017-02-15T06:50:45.797Z,99.99
2017-02-15T06:51:56.522Z,99.99
2017-02-15T06:53:07.259Z,99.99
2017-02-15T06:54:17.973Z,99.99
2017-02-15T06:55:28.687Z,99.99
2017-02-15T06:56:39.406Z,99.99
2017-02-15T06:57:50.120Z,99.99
2017-02-15T06:59:00.842Z,99.99
2017-02-15T07:00:11.553Z,99.99
2017-02-15T07:01:21.859Z,99.99
2017-02-15T07:02:32.887Z,99.99
2017-02-15T07:03:43.602Z,99.99
2017-02-15T07:04:53.914Z,99.99
2017-02-15T07:06:04.639Z,99.99
2017-02-15T07:07:14.164Z,99.99
2017-02-15T07:08:24.879Z,99.99
2017-02-15T07:09:35.595Z,99.99
2017-02-15T07:10:45.916Z,99.99
2017-02-15T07:11:56.626Z,99.99
2017-02-15T07:13:07.325Z,99.99
2017-02-15T07:14:18.020Z,99.99
2017-02-15T07:15:28.741Z,99.99
2017-02-15T07:16:39.037Z,99.99
2017-02-15T07:17:49.760Z,99.99
2017-02-15T07:18:59.683Z,99.99
2017-02-15T07:20:09.985Z,99.99
2017-02-15T07:21:19.890Z,99.99
2017-02-15T07:22:30.602Z,99.99
2017-02-15T07:23:41.299Z,99.99
2017-02-15T07:24:51.630Z,99.99
2017-02-15T07:26:02.338Z,99.99
2017-02-15T07:27:12.643Z,99.99
2017-02-15T07:28:22.971Z,99.99
2017-02-15T07:29:33.672Z,99.99
2017-02-15T07:30:44.380Z,99.99
2017-02-15T07:31:55.095Z,99.99
2017-02-15T07:33:05.809Z,99.99
2017-02-15T07:34:16.124Z,99.99
2017-02-15T07:35:26.828Z,99.99
2017-02-15T07:36:36.746Z,99.99
2017-02-15T07:37:47.468Z,99.99
2017-02-15T07:38:58.190Z,99.99
2017-02-15T07:40:08.907Z,99.99
2017-02-15T07:41:19.210Z,99.99
2017-02-15T07:42:29.918Z,99.99
2017-02-15T07:43:40.617Z,99.99
2017-02-15T07:44:51.319Z,99.99
2017-02-15T07:46:01.632Z,99.99
2017-02-15T07:47:12.332Z,99.99
2017-02-15T07:48:22.638Z,99.99
2017-02-15T07:49:33.349Z,99.99
2017-02-15T07:50:44.071Z,99.99
2017-02-15T07:51:54.788Z,99.99
2017-02-15T07:53:05.498Z,99.99
2017-02-15T07:54:15.800Z,99.99
2017-02-15T07:55:26.495Z,99.99
2017-02-15T07:56:36.802Z,99.99
2017-02-15T07:57:47.525Z,99.99
2017-02-15T07:58:58.267Z,99.99
2017-02-15T08:00:08.597Z,99.99
2017-02-15T08:01:19.314Z,99.99
2017-02-15T08:02:30.021Z,99.99
2017-02-15T08:03:40.743Z,99.99
2017-02-15T08:04:51.464Z,99.99
2017-02-15T08:06:02.173Z,99.99
2017-02-15T08:07:12.887Z,99.99
2017-02-15T08:08:23.622Z,99.99
2017-02-15T08:09:34.320Z,99.99
2017-02-15T08:10:45.039Z,99.99
2017-02-15T08:11:55.744Z,99.99
2017-02-15T08:13:06.458Z,99.99
2017-02-15T08:14:17.174Z,99.99
2017-02-15T08:15:27.476Z,99.99
2017-02-15T08:16:38.194Z,99.99
2017-02-15T08:17:48.888Z,99.99
2017-02-15T08:18:59.631Z,99.99
2017-02-15T08:20:09.938Z,99.99
2017-02-15T08:21:20.251Z,99.99
2017-02-15T08:22:30.970Z,99.99
2017-02-15T08:23:41.681Z,99.99
2017-02-15T08:24:52.403Z,99.99
2017-02-15T08:26:03.112Z,99.99
2017-02-15T08:27:13.830Z,99.99
2017-02-15T08:28:24.548Z,99.99
2017-02-15T08:29:35.254Z,99.99
2017-02-15T08:30:45.980Z,99.99
2017-02-15T08:31:56.302Z,99.99
2017-02-15T08:33:07.040Z,99.99
2017-02-15T08:34:17.754Z,99.99
2017-02-15T08:35:28.480Z,99.99
2017-02-15T08:36:39.200Z,99.99
2017-02-15T08:37:49.907Z,99.99
2017-02-15T08:39:00.629Z,99.99
2017-02-15T08:40:11.356Z,99.99
2017-02-15T08:41:22.064Z,99.99
2017-02-15T08:42:32.771Z,99.99
2017-02-15T08:43:43.503Z,99.99
2017-02-15T08:44:54.211Z,99.99
2017-02-15T08:46:04.545Z,99.99
2017-02-15T08:47:14.450Z,99.99
2017-02-15T08:48:25.145Z,99.99
2017-02-15T08:49:35.462Z,99.99
2017-02-15T08:50:46.171Z,99.99
2017-02-15T08:51:56.887Z,99.99
2017-02-15T08:53:07.600Z,99.99
2017-02-15T08:54:17.921Z,99.99
2017-02-15T08:55:28.654Z,99.99
2017-02-15T08:56:39.369Z,99.99
2017-02-15T08:57:50.081Z,99.99
2017-02-15T08:59:00.813Z,99.99
2017-02-15T09:00:11.517Z,99.99
2017-02-15T09:01:22.221Z,99.99
2017-02-15T09:02:32.983Z,99.99
2017-02-15T09:03:43.713Z,99.99
2017-02-15T09:04:54.425Z,99.99
2017-02-15T09:06:05.152Z,99.99
2017-02-15T09:07:15.482Z,99.99
2017-02-15T09:08:26.184Z,99.99
2017-02-15T09:09:36.921Z,99.99
2017-02-15T09:10:47.635Z,99.99
2017-02-15T09:11:58.387Z,99.99
2017-02-15T09:13:09.090Z,99.99
2017-02-15T09:14:19.799Z,99.99
2017-02-15T09:15:30.518Z,99.99
2017-02-15T09:16:41.225Z,99.84
2017-02-15T09:17:51.928Z,99.37
2017-02-15T09:19:02.647Z,99.51
2017-02-15T09:20:13.364Z,99.79
2017-02-15T09:21:24.090Z,99.41
2017-02-15T09:22:34.411Z,99.6
2017-02-15T09:23:45.132Z,99.32
2017-02-15T09:24:55.438Z,99.32
2017-02-15T09:26:06.162Z,99.32
2017-02-15T09:27:16.494Z,99.04
2017-02-15T09:28:27.199Z,99.32
2017-02-15T09:29:37.504Z,99.22
2017-02-15T09:30:47.814Z,99.22
2017-02-15T09:31:58.517Z,99.32
2017-02-15T09:33:09.246Z,99.41
2017-02-15T09:34:19.958Z,98.94
2017-02-15T09:35:30.681Z,99.13
2017-02-15T09:36:41.385Z,98.57
2017-02-15T09:37:52.106Z,98.94
2017-02-15T09:39:02.819Z,97.91
2017-02-15T09:40:13.542Z,98.28
2017-02-15T09:41:24.269Z,97.72
2017-02-15T09:42:34.583Z,97.43
2017-02-15T09:43:45.293Z,97.91
2017-02-15T09:44:55.623Z,97.91
2017-02-15T09:46:06.333Z,98
2017-02-15T09:47:16.652Z,97.91
2017-02-15T09:48:27.373Z,97.43
2017-02-15T09:49:38.088Z,96.86
2017-02-15T09:50:48.834Z,97.53
2017-02-15T09:51:59.170Z,97.62
2017-02-15T09:53:09.496Z,97.91
2017-02-15T09:54:20.201Z,97.81
2017-02-15T09:55:30.506Z,98
2017-02-15T09:56:41.230Z,97.81
2017-02-15T09:57:51.941Z,97.91
2017-02-15T09:59:02.663Z,97.91
2017-02-15T10:00:12.965Z,97.53
2017-02-15T10:01:23.280Z,98.19
2017-02-15T10:02:33.981Z,98.75
2017-02-15T10:03:44.686Z,98.47
2017-02-15T10:04:55.404Z,98.75
2017-02-15T10:06:05.722Z,98.57
2017-02-15T10:07:16.434Z,98.47
2017-02-15T10:08:27.184Z,98.38
2017-02-15T10:09:37.889Z,98.38
2017-02-15T10:10:48.595Z,98.66
2017-02-15T10:11:58.907Z,97.72
2017-02-15T10:13:09.244Z,97.72
2017-02-15T10:14:19.954Z,98
2017-02-15T10:15:30.686Z,97.53
2017-02-15T10:16:41.401Z,97.81
2017-02-15T10:17:52.110Z,98.1
2017-02-15T10:19:02.846Z,97.81
2017-02-15T10:20:13.570Z,98.1
2017-02-15T10:21:23.894Z,97.34
2017-02-15T10:22:34.625Z,97.05
2017-02-15T10:23:45.350Z,97.05
2017-02-15T10:24:55.680Z,97.24
2017-02-15T10:26:06.422Z,97.34
2017-02-15T10:27:16.731Z,97.15
2017-02-15T10:28:27.455Z,97.53
2017-02-15T10:29:38.161Z,96.96
2017-02-15T10:30:48.895Z,96.39
2017-02-15T10:31:59.233Z,96.39
2017-02-15T10:33:09.933Z,96.06
2017-02-15T10:34:20.269Z,95.5
2017-02-15T10:35:30.997Z,95.78
2017-02-15T10:36:41.304Z,94.93
2017-02-15T10:37:52.061Z,94.93
2017-02-15T10:39:02.785Z,95.21
2017-02-15T10:40:13.100Z,95.31
2017-02-15T10:41:23.818Z,95.21
2017-02-15T10:42:34.536Z,94.74
2017-02-15T10:43:45.258Z,94.84
2017-02-15T10:44:55.959Z,94.93
2017-02-15T10:46:05.878Z,94.74
2017-02-15T10:47:16.604Z,93.8
2017-02-15T10:48:27.334Z,93.89
2017-02-15T10:49:38.052Z,93.89
2017-02-15T10:50:48.783Z,93.8
2017-02-15T10:51:59.487Z,93.42
2017-02-15T10:53:10.221Z,93.23
2017-02-15T10:54:20.931Z,93.61
2017-02-15T10:55:31.644Z,93.99
2017-02-15T10:56:42.388Z,93.51
2017-02-15T10:57:53.101Z,93.42
2017-02-15T10:59:03.415Z,93.23
2017-02-15T11:00:14.132Z,92.9
2017-02-15T11:01:24.438Z,92.8
2017-02-15T11:02:34.742Z,92.71
2017-02-15T11:03:45.071Z,93.18
2017-02-15T11:04:55.392Z,92.33
2017-02-15T11:06:06.118Z,92.43
2017-02-15T11:07:16.837Z,92.8
2017-02-15T11:08:27.545Z,92.99
2017-02-15T11:09:38.251Z,93.18
2017-02-15T11:10:48.992Z,92.43
2017-02-15T11:11:59.329Z,92.43
2017-02-15T11:13:10.059Z,92.61
2017-02-15T11:14:20.759Z,92.43
2017-02-15T11:15:31.471Z,91.86
2017-02-15T11:16:42.188Z,91.77
2017-02-15T11:17:52.913Z,91.67
2017-02-15T11:19:02.849Z,91.29
2017-02-15T11:20:12.770Z,91.48
2017-02-15T11:21:23.501Z,91.48
2017-02-15T11:22:34.227Z,91.58
2017-02-15T11:23:44.163Z,91.29
2017-02-15T11:24:54.887Z,91.29
2017-02-15T11:26:05.193Z,91.29
2017-02-15T11:27:15.128Z,91.29
2017-02-15T11:28:25.835Z,90.35
2017-02-15T11:29:36.549Z,90.54
2017-02-15T11:30:47.274Z,90.63
2017-02-15T11:31:57.990Z,90.44
2017-02-15T11:33:08.517Z,90.06
2017-02-15T11:34:19.233Z,91.25
2017-02-15T11:35:29.548Z,91.25
2017-02-15T11:36:40.277Z,91.44
2017-02-15T11:37:51.000Z,92.1
2017-02-15T11:39:01.324Z,91.91
2017-02-15T11:40:11.245Z,92.1
2017-02-15T11:41:21.565Z,92.66
2017-02-15T11:42:31.901Z,94.03
2017-02-15T11:43:42.614Z,94.7
2017-02-15T11:44:52.944Z,94.7
2017-02-15T11:46:03.655Z,95.07
2017-02-15T11:47:14.367Z,95.54
2017-02-15T11:48:25.112Z,95.36
2017-02-15T11:49:35.818Z,95.36
2017-02-15T11:50:46.548Z,95.73
2017-02-15T11:51:56.896Z,95.45
2017-02-15T11:53:07.612Z,95.83
2017-02-15T11:54:18.325Z,96.2
2017-02-15T11:55:29.033Z,96.11
2017-02-15T11:56:39.752Z,96.3
2017-02-15T11:57:50.481Z,95.45
2017-02-15T11:59:01.192Z,95.45
2017-02-15T12:00:11.906Z,94.7
2017-02-15T12:01:22.637Z,94.89
2017-02-15T12:02:33.375Z,95.07
2017-02-15T12:03:44.080Z,94.84
2017-02-15T12:04:54.803Z,95.31
2017-02-15T12:06:05.528Z,94.93
2017-02-15T12:07:15.454Z,95.12
2017-02-15T12:08:25.766Z,94.18
2017-02-15T12:09:36.488Z,94.18
2017-02-15T12:10:47.215Z,94.46
2017-02-15T12:11:57.938Z,93.8
2017-02-15T12:13:08.657Z,93.8
2017-02-15T12:14:19.003Z,93.42
2017-02-15T12:15:29.329Z,93.32
2017-02-15T12:16:40.055Z,93.7
2017-02-15T12:17:50.776Z,93.32
2017-02-15T12:19:01.503Z,93.42
2017-02-15T12:20:11.836Z,93.04
2017-02-15T12:21:22.594Z,93.23
2017-02-15T12:22:32.913Z,92.94
2017-02-15T12:23:43.620Z,92.76
2017-02-15T12:24:54.351Z,93.13
2017-02-15T12:26:04.669Z,92.38
2017-02-15T12:27:14.984Z,92.47
2017-02-15T12:28:25.726Z,92.66
2017-02-15T12:29:36.041Z,92.57
2017-02-15T12:30:46.351Z,92.29
2017-02-15T12:31:57.071Z,92.66
2017-02-15T12:33:07.420Z,92.52
2017-02-15T12:34:18.133Z,92.43
2017-02-15T12:35:28.846Z,92.61
2017-02-15T12:36:39.575Z,92.24
2017-02-15T12:37:50.291Z,92.05
2017-02-15T12:39:00.998Z,91.2
2017-02-15T12:40:11.706Z,91.58
2017-02-15T12:41:22.038Z,91.58
2017-02-15T12:42:32.415Z,91.39
2017-02-15T12:43:43.128Z,91.2
2017-02-15T12:44:53.431Z,90.54
2017-02-15T12:46:04.137Z,90.73
2017-02-15T12:47:14.442Z,90.35
2017-02-15T12:48:25.162Z,90.35
2017-02-15T12:49:35.498Z,90.54
2017-02-15T12:50:46.218Z,90.06
2017-02-15T12:51:56.543Z,89.97
2017-02-15T12:53:07.276Z,90.25
2017-02-15T12:54:17.199Z,89.78
2017-02-15T12:55:27.564Z,89.97
2017-02-15T12:56:38.283Z,89.69
2017-02-15T12:57:48.987Z,89.4
2017-02-15T12:58:59.305Z,88.74
2017-02-15T13:00:10.030Z,89.69
2017-02-15T13:01:20.783Z,89.59
2017-02-15T13:02:31.507Z,89.22
2017-02-15T13:03:42.225Z,89.4
2017-02-15T13:04:52.932Z,89.69
2017-02-15T13:06:03.662Z,89.4
2017-02-15T13:07:14.010Z,89.69
2017-02-15T13:08:24.727Z,88.93
2017-02-15T13:09:35.073Z,89.4
2017-02-15T13:10:45.839Z,88.74
2017-02-15T13:11:56.168Z,89.59
2017-02-15T13:13:06.507Z,89.69
2017-02-15T13:14:16.821Z,89.87
2017-02-15T13:15:27.553Z,89.4
2017-02-15T13:16:38.284Z,89.31
2017-02-15T13:17:49.008Z,89.4
2017-02-15T13:18:59.327Z,88.84
2017-02-15T13:20:10.042Z,88.93
2017-02-15T13:21:20.771Z,88.93
2017-02-15T13:22:31.500Z,89.22
2017-02-15T13:23:42.219Z,89.4
2017-02-15T13:24:52.542Z,89.22
2017-02-15T13:26:03.263Z,89.31
2017-02-15T13:27:13.178Z,89.5
2017-02-15T13:28:23.905Z,89.31
2017-02-15T13:29:34.624Z,89.4
2017-02-15T13:30:45.337Z,89.5
2017-02-15T13:31:56.056Z,89.12
2017-02-15T13:33:06.838Z,89.31
2017-02-15T13:34:17.579Z,89.31
2017-02-15T13:35:27.889Z,89.4
2017-02-15T13:36:38.606Z,88.84
2017-02-15T13:37:49.337Z,89.59
2017-02-15T13:38:59.656Z,89.69
2017-02-15T13:40:09.986Z,89.5
2017-02-15T13:41:20.709Z,89.5
2017-02-15T13:42:31.434Z,89.5
2017-02-15T13:43:42.151Z,89.69
2017-02-15T13:44:52.874Z,89.22
2017-02-15T13:46:03.595Z,88.93
2017-02-15T13:47:13.919Z,88.65
2017-02-15T13:48:24.629Z,89.4
2017-02-15T13:49:35.340Z,89.69
2017-02-15T13:50:45.654Z,88.84
2017-02-15T13:51:56.371Z,89.4
2017-02-15T13:53:07.092Z,89.4
2017-02-15T13:54:17.805Z,89.4
2017-02-15T13:55:28.526Z,89.31
2017-02-15T13:56:38.841Z,89.87
2017-02-15T13:57:49.577Z,89.5
2017-02-15T13:59:00.300Z,89.59
2017-02-15T14:00:10.233Z,89.69
2017-02-15T14:01:20.555Z,89.5
2017-02-15T14:02:30.878Z,89.5
2017-02-15T14:03:41.621Z,89.5
2017-02-15T14:04:52.346Z,89.4
2017-02-15T14:06:03.055Z,89.78
2017-02-15T14:07:12.967Z,89.5
2017-02-15T14:08:23.679Z,89.87
2017-02-15T14:09:34.402Z,90.02
2017-02-15T14:10:44.736Z,90.02
2017-02-15T14:11:55.452Z,90.02
2017-02-15T14:13:05.793Z,89.92
2017-02-15T14:14:15.314Z,90.02
2017-02-15T14:15:26.074Z,89.92
2017-02-15T14:16:36.783Z,90.02
2017-02-15T14:17:47.515Z,90.49
2017-02-15T14:18:58.235Z,90.49
2017-02-15T14:20:08.586Z,90.4
2017-02-15T14:21:18.920Z,90.59
2017-02-15T14:22:29.631Z,90.21
2017-02-15T14:23:39.580Z,90.59
2017-02-15T14:24:50.298Z,90.49
2017-02-15T14:26:00.634Z,90.49
2017-02-15T14:27:10.955Z,90.49
2017-02-15T14:28:20.872Z,90.87
2017-02-15T14:29:31.649Z,91.06
2017-02-15T14:30:42.354Z,91.06
2017-02-15T14:31:53.070Z,90.96
2017-02-15T14:33:03.799Z,91.15
2017-02-15T14:34:14.125Z,91.34
2017-02-15T14:35:24.872Z,91.15
2017-02-15T14:36:35.184Z,90.77
2017-02-15T14:37:45.899Z,91.25
2017-02-15T14:38:56.252Z,91.25
2017-02-15T14:40:06.965Z,91.15
2017-02-15T14:41:17.675Z,91.44
2017-02-15T14:42:28.390Z,91.53
2017-02-15T14:43:39.104Z,91.15
2017-02-15T14:44:49.828Z,91.25
2017-02-15T14:46:00.553Z,92.1
2017-02-15T14:47:10.865Z,91.15
2017-02-15T14:48:21.578Z,91.44
2017-02-15T14:49:31.895Z,91.63
2017-02-15T14:50:41.855Z,91.15
2017-02-15T14:51:52.568Z,92
2017-02-15T14:53:03.284Z,91.82
2017-02-15T14:54:13.590Z,92.1
2017-02-15T14:55:24.315Z,92.19
2017-02-15T14:56:34.229Z,92.19
2017-02-15T14:57:44.952Z,92
2017-02-15T14:58:55.668Z,92.19
2017-02-15T15:00:06.385Z,92.66
2017-02-15T15:01:16.302Z,92.33
2017-02-15T15:02:27.015Z,92.38
2017-02-15T15:03:37.718Z,92.52
2017-02-15T15:04:48.445Z,92.24
2017-02-15T15:05:58.355Z,92.33
2017-02-15T15:07:08.663Z,92.71
2017-02-15T15:08:19.378Z,92.52
2017-02-15T15:09:29.691Z,92.71
2017-02-15T15:10:40.412Z,92.43
2017-02-15T15:11:51.118Z,92.43